Weather at Bains Private Airport

Public forecast

Using degrees Fahrenheit for public forecast. Weather courtesy of forecast.io.

Closest aviation weather report (METAR) to Bains Private Airport

Closest report is Kerrville Municipal Louis Schreiner Field, 10.1 nm (18.6 km) N. Retrieved 2020/11/29 09:35 UTC (51 seconds ago):

KERV 290935Z AUTO 35007KT 10SM OVC004 06/05 A3005 RMK AO2 T00570045

Closest aviation forecast (TAF) to Bains Private Airport

Closest forecast is San Antonio International Airport, 35.3 nm (65.5 km) ESE. Retrieved 2020/11/29 06:30 UTC (3 hours ago):

TAF KSAT 290529Z 2906/3012 35007KT P6SM VCSH SCT009 OVC025 FM290700 35009KT 6SM BR VCSH BKN015 FM291000 34007KT P6SM SCT025 FM291500 34012G19KT P6SM SKC FM292300 34011KT P6SM SKC